Pagina principale
METAR-TAF:

METAR-TAF

Aeroporti :

Aeroporto di Rimini-Miramare

Rimini, Italia

latitudine: 44-02N, longitudine: 012-37E, altezza: 12 m

Osservazione

Il bollettino è stato emesso 30 minuti fa, alle 18:20 UTC
Vento 2 kt da sud
Temperature 14°C
Umidità 94%
Pressione 1004 hPa
Visibilità 10 km o più
Poco nuvoloso ad un'altezza di 1000 ft
Nubi sparse ad un'altezza di 3000 ft
Nuvoloso ad un'altezza di 7000 ft

METAR: LIPR 191820Z 19002KT 9999 FEW010 SCT030 BKN070 14/13 Q1004

Ora: 20:50 (18:50 UTC)

Previsione

Il bollettino è stato emesso 1 ora e 50 minuti fa, alle 17:00 UTC
Previsione valida dal 19 alle 18 UTC al 20 alle 03 UTC
Vento 5 kt da direzioni variabili
Visibilità 10 km o più
Nubi sparse ad un'altezza di 2000 ft
Nuvoloso ad un'altezza di 4000 ft
Temporaneamente
dal 19 alle 18 UTC al 19 alle 22 UTC
rovesci di pioggia

TAF: LIPR 191700Z 1918/2003 VRB05KT 9999 SCT020 BKN040 TEMPO 1918/1922 SHRA

Osservazioni e previsioni meteorologiche di più di 4000 aeroporti (messaggi METAR e TAF).

Le stazioni disponibili sono rappresentate dai dischi gialli e rossi sulla carta.

Puntare il mouse per vedere il nome della stazione.

Clicca sopra per visualizzare le osservazioni e previsioni meteorologiche.

Per cambiare la mappa : fare clic sui pulsanti verdi con una croce nera per ingrandire, il pulsante verde con un trattino per diminuire, o sulla freccia verde per le mappe adiacenti.


METAR-TAF: